Decoded Metar for KQBL ( in _UNIDENTIFIED) (IATA:) | Meteo·Mobile Aviation Weather
aviador You're here:

KQBL Decoded Metar

in _UNIDENTIFIED
Report Time2018-12-13 09:56:00
UTC Time2018-12-13 10:31:16
Flight Rules vfr VFR
WindCalm
Visibility9999 m
Phenomena:N/A
Clouds:Few 025 Hf
Scattered 035 Hf
Overcast 042 Hf
Expected CloudBase > 400 ft AGL from Temp-Dew spread
Ceiling4,200 ft
Temp14°C
Dew Point13°C (94% RH)
QNH1020 hPa
Raw Report
METAR KQBL 130956Z AUTO 00000KT 10SM FEW025 SCT035 OVC042 14/13 A3012
RMK AO2 SHRAE05 SLP201 WND DATA ESTMD T01420125=

Extra information for KQBL:More info

Metar Taf Metar & Taf Last 4 Metars F.Rules Stats Wind Profile Meteogram Temp Stats Metar ALERT Operation Metar Decoded Social comments